createdAt,value
2019-01-30T00:00:37.682Z,3.03
2019-01-30T00:03:10.090Z,3.03
2019-01-30T00:05:42.291Z,3.25
2019-01-30T00:10:44.879Z,3.20
2019-01-30T00:13:16.951Z,3.37
2019-01-30T00:15:56.119Z,3.10
2019-01-30T00:18:22.882Z,3.25
2019-01-30T00:20:55.290Z,3.00
2019-01-30T00:25:57.953Z,3.17
2019-01-30T00:28:30.136Z,3.63
2019-01-30T00:31:02.129Z,3.60
2019-01-30T00:33:34.149Z,3.00
2019-01-30T00:38:36.958Z,3.60
2019-01-30T00:41:09.089Z,3.35
2019-01-30T00:43:41.298Z,3.60
2019-01-30T00:48:44.291Z,3.93
2019-01-30T00:53:46.960Z,3.30
2019-01-30T00:56:18.944Z,3.85
2019-01-30T00:58:50.957Z,3.90
2019-01-30T01:01:22.954Z,3.97
2019-01-30T01:03:54.941Z,5.33
2019-01-30T01:06:26.953Z,4.50
2019-01-30T01:08:59.269Z,4.67
2019-01-30T01:14:01.951Z,4.37
2019-01-30T01:16:33.959Z,4.58
2019-01-30T01:19:05.956Z,3.87
2019-01-30T01:21:38.275Z,4.77
2019-01-30T01:26:41.290Z,4.55
2019-01-30T01:31:43.935Z,4.77
2019-01-30T01:34:15.963Z,4.00
2019-01-30T01:36:47.954Z,4.00
2019-01-30T01:39:19.950Z,4.50
2019-01-30T01:41:51.940Z,3.90
2019-01-30T01:44:24.310Z,3.52
2019-01-30T01:46:58.791Z,4.70
2019-01-30T01:49:30.922Z,4.17
2019-01-30T01:52:02.941Z,3.67
2019-01-30T01:54:34.954Z,3.83
2019-01-30T01:57:07.370Z,4.60
2019-01-30T01:59:39.304Z,4.25
2019-01-30T02:02:11.109Z,4.45
2019-01-30T02:04:43.282Z,4.87
2019-01-30T02:09:45.886Z,5.67
2019-01-30T02:12:17.910Z,4.83
2019-01-30T02:14:49.951Z,4.27
2019-01-30T02:17:22.150Z,4.30
2019-01-30T02:22:24.801Z,4.23
2019-01-30T02:24:57.280Z,4.80
2019-01-30T02:30:00.413Z,5.00
2019-01-30T02:32:32.316Z,5.10
2019-01-30T02:35:04.331Z,5.93
2019-01-30T02:37:36.284Z,5.72
2019-01-30T02:40:10.717Z,5.30
2019-01-30T02:42:42.755Z,4.80
2019-01-30T02:45:17.904Z,3.83
2019-01-30T02:47:50.285Z,4.60
2019-01-30T02:55:25.299Z,5.57
2019-01-30T03:00:30.755Z,4.57
2019-01-30T03:03:02.960Z,4.73
2019-01-30T03:05:34.960Z,4.77
2019-01-30T03:08:06.956Z,4.78
2019-01-30T03:10:39.278Z,4.85
2019-01-30T03:15:42.096Z,5.30
2019-01-30T03:18:14.275Z,4.80
2019-01-30T03:23:16.959Z,5.50
2019-01-30T03:25:48.959Z,5.67
2019-01-30T03:28:20.985Z,5.20
2019-01-30T03:30:53.506Z,4.95
2019-01-30T03:33:25.735Z,5.37
2019-01-30T03:35:57.894Z,5.40
2019-01-30T03:38:29.943Z,5.33
2019-01-30T03:41:01.961Z,5.00
2019-01-30T03:43:33.961Z,4.87
2019-01-30T03:46:06.388Z,4.53
2019-01-30T03:48:38.348Z,4.95
2019-01-30T03:53:40.903Z,5.27
2019-01-30T03:56:13.276Z,5.57
2019-01-30T04:01:26.298Z,5.62
2019-01-30T04:03:49.814Z,5.60
2019-01-30T04:06:22.299Z,6.25
2019-01-30T04:11:24.957Z,5.40
2019-01-30T04:13:56.961Z,6.15
2019-01-30T04:16:28.952Z,5.17
2019-01-30T04:19:00.948Z,6.75
2019-01-30T04:21:32.950Z,5.15
2019-01-30T04:24:05.266Z,5.27
2019-01-30T04:29:07.762Z,5.00
2019-01-30T04:31:39.885Z,5.60
2019-01-30T04:34:11.952Z,4.60
2019-01-30T04:36:43.954Z,5.03
2019-01-30T04:39:15.935Z,5.57
2019-01-30T04:41:47.957Z,4.93
2019-01-30T04:44:19.941Z,3.90
2019-01-30T04:46:51.950Z,4.35
2019-01-30T04:49:24.109Z,4.70
2019-01-30T04:51:56.074Z,4.35
2019-01-30T04:54:28.092Z,5.12
2019-01-30T04:57:00.146Z,4.50
2019-01-30T04:59:31.944Z,5.08
2019-01-30T05:02:03.952Z,4.47
2019-01-30T05:04:36.792Z,4.87
2019-01-30T05:07:08.908Z,5.07
2019-01-30T05:09:40.959Z,5.63
2019-01-30T05:12:13.136Z,5.40
2019-01-30T05:14:45.548Z,5.50
2019-01-30T05:17:23.648Z,4.70
2019-01-30T05:19:55.750Z,5.20
2019-01-30T05:22:27.754Z,4.57
2019-01-30T05:24:59.894Z,5.07
2019-01-30T05:27:31.960Z,6.67
2019-01-30T05:30:10.722Z,4.90
2019-01-30T05:32:42.910Z,3.83
2019-01-30T05:35:15.379Z,2.90
2019-01-30T05:37:47.339Z,3.37
2019-01-30T05:42:50.364Z,3.03
2019-01-30T05:45:22.394Z,3.00
2019-01-30T05:47:54.340Z,3.20
2019-01-30T05:50:26.285Z,2.92
2019-01-30T05:55:28.958Z,2.45
2019-01-30T05:58:00.950Z,2.40
2019-01-30T06:00:43.727Z,2.52
2019-01-30T06:03:15.961Z,2.73
2019-01-30T06:05:47.959Z,3.10
2019-01-30T06:08:19.952Z,2.87
2019-01-30T06:10:52.281Z,5.35
2019-01-30T06:15:55.291Z,2.77
2019-01-30T06:18:26.954Z,2.40
2019-01-30T06:21:00.343Z,3.13
2019-01-30T06:28:42.135Z,3.27
2019-01-30T06:31:18.951Z,2.53
2019-01-30T06:33:55.480Z,3.08
2019-01-30T06:36:29.716Z,2.93
2019-01-30T06:39:01.902Z,5.30
2019-01-30T06:41:34.284Z,2.90
2019-01-30T06:49:12.286Z,11.97
2019-01-30T06:54:17.965Z,3.20
2019-01-30T06:56:50.340Z,2.70
2019-01-30T07:01:57.022Z,3.43
2019-01-30T07:04:29.685Z,2.93
2019-01-30T07:07:02.284Z,3.67
2019-01-30T07:12:10.703Z,3.10
2019-01-30T07:14:44.739Z,3.27
2019-01-30T07:17:19.605Z,4.20
2019-01-30T07:19:51.891Z,3.10
2019-01-30T07:22:25.286Z,4.40
2019-01-30T07:27:30.556Z,3.50
2019-01-30T07:30:02.739Z,4.67
2019-01-30T07:32:42.256Z,16.60
2019-01-30T07:35:11.839Z,6.63
2019-01-30T07:37:44.115Z,4.60
2019-01-30T07:40:19.917Z,3.77
2019-01-30T07:42:53.287Z,4.25
2019-01-30T07:47:58.248Z,3.37
2019-01-30T07:53:01.299Z,7.58
2019-01-30T07:55:33.662Z,5.28
2019-01-30T07:58:06.291Z,3.77
2019-01-30T08:03:09.339Z,4.77
2019-01-30T08:08:12.321Z,4.43
2019-01-30T08:10:44.671Z,4.80
2019-01-30T08:13:16.942Z,10.20
2019-01-30T08:15:49.344Z,8.83
2019-01-30T08:18:21.583Z,4.70
2019-01-30T08:20:57.128Z,8.13
2019-01-30T08:23:31.432Z,5.37
2019-01-30T08:26:03.721Z,5.33
2019-01-30T08:28:36.203Z,5.37
2019-01-30T08:33:39.687Z,5.00
2019-01-30T08:36:11.891Z,5.20
2019-01-30T08:38:44.272Z,4.80
2019-01-30T08:51:20.338Z,5.40
2019-01-30T08:53:52.263Z,4.70
2019-01-30T08:58:55.279Z,4.40
2019-01-30T09:03:58.277Z,4.37
2019-01-30T09:16:34.127Z,4.80
2019-01-30T09:26:39.529Z,4.60
2019-01-30T09:29:11.684Z,5.07
2019-01-30T09:31:43.939Z,4.40
2019-01-30T09:34:16.278Z,4.70
2019-01-30T09:41:50.289Z,5.10
2019-01-30T09:49:24.289Z,4.47
2019-01-30T09:54:27.687Z,5.03
2019-01-30T09:56:59.963Z,4.80
2019-01-30T09:59:32.072Z,4.80
2019-01-30T10:02:04.316Z,4.27
2019-01-30T10:04:36.585Z,5.20
2019-01-30T10:07:08.935Z,4.87
2019-01-30T10:09:41.280Z,5.40
2019-01-30T10:27:19.334Z,4.97
2019-01-30T10:29:51.290Z,6.13
2019-01-30T10:32:23.418Z,4.90
2019-01-30T10:34:55.686Z,5.10
2019-01-30T10:37:27.880Z,4.43
2019-01-30T10:39:59.924Z,5.97
2019-01-30T10:42:32.275Z,5.20
2019-01-30T10:50:08.706Z,5.55
2019-01-30T10:52:41.268Z,5.40
2019-01-30T10:55:17.753Z,6.58
2019-01-30T10:57:53.564Z,5.73
2019-01-30T11:00:29.940Z,5.90
2019-01-30T11:03:02.282Z,4.83
2019-01-30T11:10:36.750Z,5.07
2019-01-30T11:13:09.652Z,5.53
2019-01-30T11:15:42.261Z,4.60
2019-01-30T11:20:48.276Z,5.15
2019-01-30T11:28:23.642Z,6.47
2019-01-30T11:30:56.262Z,5.53
2019-01-30T11:33:28.311Z,5.80
2019-01-30T11:36:01.293Z,5.42
2019-01-30T11:38:33.535Z,5.20
2019-01-30T11:41:05.705Z,5.30
2019-01-30T11:43:37.936Z,5.45
2019-01-30T11:46:10.300Z,5.83
2019-01-30T11:48:42.371Z,4.90
2019-01-30T11:51:16.336Z,6.00
2019-01-30T11:56:19.326Z,5.47
2019-01-30T11:58:51.364Z,9.10
2019-01-30T12:01:23.630Z,10.27
2019-01-30T12:03:55.883Z,5.53
2019-01-30T12:06:29.606Z,5.67
2019-01-30T12:09:01.699Z,4.70
2019-01-30T12:11:33.942Z,5.40
2019-01-30T12:14:06.491Z,5.58
2019-01-30T12:16:39.106Z,5.33
2019-01-30T12:24:14.343Z,5.33
2019-01-30T12:26:46.330Z,4.47
2019-01-30T12:29:18.309Z,5.55
2019-01-30T12:31:50.331Z,4.97
2019-01-30T12:36:55.303Z,5.37
2019-01-30T12:39:27.339Z,5.30
2019-01-30T12:41:59.610Z,5.33
2019-01-30T12:44:33.568Z,4.83
2019-01-30T12:47:05.862Z,5.10
2019-01-30T12:49:38.277Z,5.03
2019-01-30T12:52:10.293Z,4.87
2019-01-30T12:54:42.283Z,5.43
2019-01-30T12:57:14.325Z,5.55
2019-01-30T12:59:46.635Z,5.23
2019-01-30T13:02:18.722Z,9.30
2019-01-30T13:04:50.933Z,6.67
2019-01-30T13:07:23.274Z,5.78
2019-01-30T13:12:26.283Z,5.93
2019-01-30T13:14:58.629Z,5.30
2019-01-30T13:17:30.892Z,6.25
2019-01-30T13:20:03.278Z,5.90
2019-01-30T13:22:35.320Z,5.35
2019-01-30T13:25:08.293Z,5.70
2019-01-30T13:27:40.386Z,5.20
2019-01-30T13:30:21.752Z,5.90
2019-01-30T13:32:54.310Z,7.23
2019-01-30T13:35:26.280Z,7.70
2019-01-30T13:37:58.304Z,6.30
2019-01-30T13:40:36.313Z,6.70
2019-01-30T13:43:09.291Z,6.00
2019-01-30T13:48:18.281Z,6.13
2019-01-30T13:55:53.676Z,5.87
2019-01-30T13:58:31.870Z,6.63
2019-01-30T14:01:04.333Z,6.17
2019-01-30T14:03:37.275Z,6.87
2019-01-30T14:08:41.311Z,11.73
2019-01-30T14:11:17.748Z,12.33
2019-01-30T14:13:51.523Z,6.35
2019-01-30T14:16:23.671Z,6.30
2019-01-30T14:18:55.870Z,5.87
2019-01-30T14:21:31.596Z,5.80
2019-01-30T14:24:05.647Z,6.45
2019-01-30T14:26:39.907Z,5.90
2019-01-30T14:29:16.028Z,6.40
2019-01-30T14:31:48.309Z,5.50
2019-01-30T14:34:20.337Z,6.40
2019-01-30T14:36:54.579Z,5.53
2019-01-30T14:39:27.942Z,6.85
2019-01-30T14:42:03.554Z,6.13
2019-01-30T14:44:37.093Z,6.30
2019-01-30T14:47:10.609Z,5.80
2019-01-30T14:49:43.145Z,6.57
2019-01-30T14:54:50.566Z,6.73
2019-01-30T14:57:22.977Z,5.17
2019-01-30T14:59:55.287Z,5.70
2019-01-30T15:02:27.654Z,6.10
2019-01-30T15:05:02.279Z,5.97
2019-01-30T15:12:41.430Z,5.83
2019-01-30T15:15:16.669Z,6.83
2019-01-30T15:17:48.951Z,5.97
2019-01-30T15:20:27.889Z,6.85
2019-01-30T15:23:01.323Z,6.00
2019-01-30T15:25:35.384Z,10.27
2019-01-30T15:28:07.955Z,9.40
2019-01-30T15:30:47.900Z,6.90
2019-01-30T15:33:21.307Z,6.37
2019-01-30T15:40:56.363Z,5.90
2019-01-30T15:43:28.298Z,7.25
2019-01-30T15:48:32.649Z,5.17
2019-01-30T15:51:06.138Z,6.83
2019-01-30T15:53:40.888Z,6.20
2019-01-30T15:56:14.431Z,6.12
2019-01-30T15:58:47.679Z,6.47
2019-01-30T16:01:36.946Z,5.92
2019-01-30T16:04:13.824Z,5.85
2019-01-30T16:06:49.395Z,6.93
2019-01-30T16:09:21.786Z,7.17
2019-01-30T16:11:55.103Z,10.00
2019-01-30T16:14:27.318Z,6.90
2019-01-30T16:16:59.335Z,6.77
2019-01-30T16:19:34.279Z,7.30
2019-01-30T16:24:44.707Z,6.70
2019-01-30T16:27:16.948Z,7.37
2019-01-30T16:29:56.358Z,6.20
2019-01-30T16:34:59.678Z,7.67
2019-01-30T16:37:32.363Z,8.07
2019-01-30T16:40:04.706Z,8.67
2019-01-30T16:42:39.281Z,7.83
2019-01-30T16:45:16.752Z,7.30
2019-01-30T16:47:49.279Z,9.05
2019-01-30T16:55:26.518Z,8.10
2019-01-30T16:57:59.275Z,8.45
2019-01-30T17:03:07.268Z,8.20
2019-01-30T17:08:11.794Z,10.78
2019-01-30T17:10:43.884Z,10.45
2019-01-30T17:13:15.962Z,9.20
2019-01-30T17:15:47.958Z,8.28
2019-01-30T17:18:20.284Z,10.00
2019-01-30T17:23:23.657Z,10.00
2019-01-30T17:25:56.282Z,8.88
2019-01-30T17:28:28.278Z,9.77
2019-01-30T17:33:46.930Z,10.07
2019-01-30T17:36:19.280Z,9.08
2019-01-30T17:38:51.258Z,8.80
2019-01-30T17:43:54.116Z,10.10
2019-01-30T17:48:56.950Z,9.17
2019-01-30T17:51:28.945Z,9.58
2019-01-30T17:54:00.937Z,8.90
2019-01-30T17:56:33.112Z,11.70
2019-01-30T17:59:05.339Z,12.17
2019-01-30T18:04:08.290Z,9.63
2019-01-30T18:09:12.377Z,10.40
2019-01-30T18:11:44.355Z,9.53
2019-01-30T18:14:16.313Z,9.58
2019-01-30T18:16:48.274Z,9.07
2019-01-30T18:21:51.120Z,9.58
2019-01-30T18:26:53.979Z,9.78
2019-01-30T18:29:26.098Z,7.93
2019-01-30T18:34:28.943Z,9.08
2019-01-30T18:37:01.067Z,8.50
2019-01-30T18:39:33.096Z,9.87
2019-01-30T18:44:35.944Z,10.73
2019-01-30T18:47:08.269Z,10.40
2019-01-30T18:52:13.302Z,8.23
2019-01-30T18:54:45.380Z,7.30
2019-01-30T18:57:18.302Z,8.60
2019-01-30T18:59:50.296Z,8.10
2019-01-30T19:02:22.316Z,9.60
2019-01-30T19:07:25.375Z,9.27
2019-01-30T19:09:57.770Z,8.78
2019-01-30T19:12:37.468Z,10.03
2019-01-30T19:15:13.657Z,9.70
2019-01-30T19:17:45.940Z,8.93
2019-01-30T19:20:22.276Z,9.03
2019-01-30T19:25:25.282Z,18.73
2019-01-30T19:30:30.952Z,9.93
2019-01-30T19:33:03.724Z,8.03
2019-01-30T19:35:35.946Z,8.53
2019-01-30T19:38:09.627Z,9.07
2019-01-30T19:40:41.773Z,8.03
2019-01-30T19:43:14.278Z,9.87
2019-01-30T19:45:46.286Z,8.83
2019-01-30T19:50:49.407Z,7.92
2019-01-30T19:53:21.548Z,7.53
2019-01-30T19:55:53.775Z,7.67
2019-01-30T19:58:25.944Z,8.20
2019-01-30T20:00:57.940Z,8.70
2019-01-30T20:03:34.299Z,8.53
2019-01-30T20:08:37.662Z,8.53
2019-01-30T20:11:09.940Z,7.97
2019-01-30T20:13:42.278Z,8.90
2019-01-30T20:21:16.124Z,8.00
2019-01-30T20:31:21.270Z,7.40
2019-01-30T20:36:23.711Z,7.40
2019-01-30T20:38:55.933Z,6.37
2019-01-30T20:41:28.235Z,7.10
2019-01-30T20:46:30.928Z,6.35
2019-01-30T20:49:03.258Z,6.30
2019-01-30T20:56:38.313Z,6.70
2019-01-30T20:59:10.316Z,7.50
2019-01-30T21:01:42.718Z,6.97
2019-01-30T21:04:14.755Z,6.30
2019-01-30T21:06:46.940Z,5.67
2019-01-30T21:09:18.946Z,6.03
2019-01-30T21:11:54.390Z,6.10
2019-01-30T21:14:25.955Z,5.27
2019-01-30T21:16:58.276Z,5.50
2019-01-30T21:22:00.956Z,5.00
2019-01-30T21:24:33.082Z,6.10
2019-01-30T21:29:36.088Z,7.50
2019-01-30T21:32:08.281Z,8.43
2019-01-30T21:37:10.938Z,6.07
2019-01-30T21:39:42.941Z,5.37
2019-01-30T21:42:14.934Z,5.60
2019-01-30T21:47:29.941Z,5.08
2019-01-30T21:50:02.287Z,5.20
2019-01-30T21:52:34.294Z,5.73
2019-01-30T21:55:08.736Z,4.93
2019-01-30T21:57:41.274Z,5.43
2019-01-30T22:02:47.717Z,5.23
2019-01-30T22:05:19.937Z,4.92
2019-01-30T22:08:00.627Z,5.03
2019-01-30T22:10:31.322Z,4.83
2019-01-30T22:15:35.962Z,4.40
2019-01-30T22:18:08.749Z,4.67
2019-01-30T22:20:41.361Z,4.97
2019-01-30T22:23:14.471Z,4.53
2019-01-30T22:25:46.968Z,5.00
2019-01-30T22:28:19.949Z,4.83
2019-01-30T22:30:52.442Z,4.53
2019-01-30T22:33:26.312Z,4.90
2019-01-30T22:35:58.945Z,4.57
2019-01-30T22:38:31.582Z,5.43
2019-01-30T22:41:04.296Z,5.03
2019-01-30T22:46:09.982Z,4.53
2019-01-30T22:48:44.964Z,4.20
2019-01-30T22:51:18.064Z,4.43
2019-01-30T22:53:49.954Z,4.40
2019-01-30T22:59:11.115Z,4.80
2019-01-30T23:05:24.279Z,4.33
2019-01-30T23:08:29.681Z,4.13
2019-01-30T23:11:47.645Z,3.77
2019-01-30T23:14:34.359Z,4.63
2019-01-30T23:17:59.779Z,4.43
2019-01-30T23:21:01.287Z,4.47
2019-01-30T23:26:51.306Z,3.73
2019-01-30T23:32:56.933Z,3.58
2019-01-30T23:36:33.279Z,4.12
2019-01-30T23:43:05.629Z,3.87
2019-01-30T23:46:07.279Z,3.27
2019-01-30T23:52:09.941Z,3.93
2019-01-30T23:55:42.308Z,3.33
